sensor_id;sensor_type;location;lat;lon;timestamp;temperature;humidity
68476;DHT22;55464;48.266;14.188;2022-10-16T00:00:00;14.10;90.90
68476;DHT22;55464;48.266;14.188;2022-10-16T00:02:26;14.10;90.90
68476;DHT22;55464;48.266;14.188;2022-10-16T00:04:51;14.10;90.70
68476;DHT22;55464;48.266;14.188;2022-10-16T00:07:17;14.10;90.60
68476;DHT22;55464;48.266;14.188;2022-10-16T00:09:43;14.10;90.60
68476;DHT22;55464;48.266;14.188;2022-10-16T00:12:09;14.10;90.60
68476;DHT22;55464;48.266;14.188;2022-10-16T00:14:34;14.10;90.80
68476;DHT22;55464;48.266;14.188;2022-10-16T00:17:00;14.10;90.70
68476;DHT22;55464;48.266;14.188;2022-10-16T00:19:26;14.00;90.70
68476;DHT22;55464;48.266;14.188;2022-10-16T00:21:51;14.00;90.80
68476;DHT22;55464;48.266;14.188;2022-10-16T00:24:17;14.10;90.80
68476;DHT22;55464;48.266;14.188;2022-10-16T00:26:42;14.10;90.70
68476;DHT22;55464;48.266;14.188;2022-10-16T00:29:09;14.10;90.50
68476;DHT22;55464;48.266;14.188;2022-10-16T00:31:34;14.00;90.40
68476;DHT22;55464;48.266;14.188;2022-10-16T00:34:00;14.00;90.60
68476;DHT22;55464;48.266;14.188;2022-10-16T00:36:26;14.00;90.70
68476;DHT22;55464;48.266;14.188;2022-10-16T00:38:54;14.00;90.40
68476;DHT22;55464;48.266;14.188;2022-10-16T00:41:21;14.00;90.50
68476;DHT22;55464;48.266;14.188;2022-10-16T00:46:19;14.00;90.20
68476;DHT22;55464;48.266;14.188;2022-10-16T00:48:50;14.00;90.00
68476;DHT22;55464;48.266;14.188;2022-10-16T00:51:19;14.00;90.00
68476;DHT22;55464;48.266;14.188;2022-10-16T00:53:48;13.90;89.90
68476;DHT22;55464;48.266;14.188;2022-10-16T00:56:13;13.90;89.90
68476;DHT22;55464;48.266;14.188;2022-10-16T00:58:39;13.90;89.80
68476;DHT22;55464;48.266;14.188;2022-10-16T01:01:05;13.90;89.90
68476;DHT22;55464;48.266;14.188;2022-10-16T01:03:33;13.90;90.00
68476;DHT22;55464;48.266;14.188;2022-10-16T01:07:03;13.90;90.00
68476;DHT22;55464;48.266;14.188;2022-10-16T01:09:16;13.90;90.10
68476;DHT22;55464;48.266;14.188;2022-10-16T01:12:04;13.90;90.00
68476;DHT22;55464;48.266;14.188;2022-10-16T01:14:40;14.00;89.90
68476;DHT22;55464;48.266;14.188;2022-10-16T01:17:17;13.90;89.80
68476;DHT22;55464;48.266;14.188;2022-10-16T01:20:10;13.90;89.80
68476;DHT22;55464;48.266;14.188;2022-10-16T01:22:59;13.90;89.70
68476;DHT22;55464;48.266;14.188;2022-10-16T01:28:17;13.90;89.70
68476;DHT22;55464;48.266;14.188;2022-10-16T01:30:45;13.90;89.70
68476;DHT22;55464;48.266;14.188;2022-10-16T01:33:35;13.90;89.60
68476;DHT22;55464;48.266;14.188;2022-10-16T01:36:12;13.90;89.60
68476;DHT22;55464;48.266;14.188;2022-10-16T01:38:40;13.90;89.60
68476;DHT22;55464;48.266;14.188;2022-10-16T01:41:27;13.90;89.60
68476;DHT22;55464;48.266;14.188;2022-10-16T01:46:43;13.90;89.60
68476;DHT22;55464;48.266;14.188;2022-10-16T01:49:11;13.80;89.60
68476;DHT22;55464;48.266;14.188;2022-10-16T01:51:38;13.80;89.60
68476;DHT22;55464;48.266;14.188;2022-10-16T01:54:07;13.80;89.60
68476;DHT22;55464;48.266;14.188;2022-10-16T01:56:34;13.80;89.70
68476;DHT22;55464;48.266;14.188;2022-10-16T01:59:07;13.80;90.00
68476;DHT22;55464;48.266;14.188;2022-10-16T02:01:37;13.80;90.10
68476;DHT22;55464;48.266;14.188;2022-10-16T02:04:23;13.80;89.90
68476;DHT22;55464;48.266;14.188;2022-10-16T02:06:50;13.80;90.00
68476;DHT22;55464;48.266;14.188;2022-10-16T02:09:16;13.70;90.00
68476;DHT22;55464;48.266;14.188;2022-10-16T02:11:43;13.70;90.10
68476;DHT22;55464;48.266;14.188;2022-10-16T02:14:09;13.80;90.10
68476;DHT22;55464;48.266;14.188;2022-10-16T02:16:40;13.70;90.00
68476;DHT22;55464;48.266;14.188;2022-10-16T02:19:06;13.70;90.00
68476;DHT22;55464;48.266;14.188;2022-10-16T02:24:16;13.70;89.90
68476;DHT22;55464;48.266;14.188;2022-10-16T02:26:57;13.70;89.90
68476;DHT22;55464;48.266;14.188;2022-10-16T02:29:26;13.70;90.00
68476;DHT22;55464;48.266;14.188;2022-10-16T02:32:01;13.70;89.90
68476;DHT22;55464;48.266;14.188;2022-10-16T02:34:30;13.70;89.90
68476;DHT22;55464;48.266;14.188;2022-10-16T02:36:58;13.70;89.90
68476;DHT22;55464;48.266;14.188;2022-10-16T02:39:26;13.80;90.00
68476;DHT22;55464;48.266;14.188;2022-10-16T02:41:52;13.70;89.90
68476;DHT22;55464;48.266;14.188;2022-10-16T02:44:18;13.70;89.90
68476;DHT22;55464;48.266;14.188;2022-10-16T02:46:43;13.70;89.80
68476;DHT22;55464;48.266;14.188;2022-10-16T02:49:09;13.70;89.80
68476;DHT22;55464;48.266;14.188;2022-10-16T02:51:35;13.70;89.90
68476;DHT22;55464;48.266;14.188;2022-10-16T02:54:01;13.70;90.00
68476;DHT22;55464;48.266;14.188;2022-10-16T02:56:26;13.70;90.00
68476;DHT22;55464;48.266;14.188;2022-10-16T02:58:52;13.70;89.80
68476;DHT22;55464;48.266;14.188;2022-10-16T03:01:18;13.70;89.90
68476;DHT22;55464;48.266;14.188;2022-10-16T03:03:43;13.70;90.00
68476;DHT22;55464;48.266;14.188;2022-10-16T03:06:09;13.70;90.00
68476;DHT22;55464;48.266;14.188;2022-10-16T03:08:35;13.80;90.20
68476;DHT22;55464;48.266;14.188;2022-10-16T03:11:00;13.80;90.20
68476;DHT22;55464;48.266;14.188;2022-10-16T03:13:26;13.80;90.20
68476;DHT22;55464;48.266;14.188;2022-10-16T03:15:52;13.80;90.30
68476;DHT22;55464;48.266;14.188;2022-10-16T03:18:17;13.80;90.40
68476;DHT22;55464;48.266;14.188;2022-10-16T03:20:43;13.80;90.40
68476;DHT22;55464;48.266;14.188;2022-10-16T03:23:09;13.80;90.60
68476;DHT22;55464;48.266;14.188;2022-10-16T03:25:35;13.70;90.60
68476;DHT22;55464;48.266;14.188;2022-10-16T03:28:01;13.70;90.70
68476;DHT22;55464;48.266;14.188;2022-10-16T03:30:27;13.70;90.70
68476;DHT22;55464;48.266;14.188;2022-10-16T03:32:52;13.80;90.80
68476;DHT22;55464;48.266;14.188;2022-10-16T03:35:23;13.70;90.70
68476;DHT22;55464;48.266;14.188;2022-10-16T03:37:50;13.70;90.70
68476;DHT22;55464;48.266;14.188;2022-10-16T03:40:16;13.70;90.60
68476;DHT22;55464;48.266;14.188;2022-10-16T03:42:43;13.70;90.70
68476;DHT22;55464;48.266;14.188;2022-10-16T03:45:09;13.70;90.60
68476;DHT22;55464;48.266;14.188;2022-10-16T03:47:35;13.70;90.70
68476;DHT22;55464;48.266;14.188;2022-10-16T03:50:01;13.70;90.70
68476;DHT22;55464;48.266;14.188;2022-10-16T03:52:27;13.70;90.70
68476;DHT22;55464;48.266;14.188;2022-10-16T03:54:53;13.70;90.60
68476;DHT22;55464;48.266;14.188;2022-10-16T03:57:19;13.70;90.50
68476;DHT22;55464;48.266;14.188;2022-10-16T03:59:46;13.70;90.60
68476;DHT22;55464;48.266;14.188;2022-10-16T04:02:12;13.70;90.50
68476;DHT22;55464;48.266;14.188;2022-10-16T04:04:38;13.70;90.40
68476;DHT22;55464;48.266;14.188;2022-10-16T04:07:04;13.70;90.30
68476;DHT22;55464;48.266;14.188;2022-10-16T04:09:30;13.60;90.10
68476;DHT22;55464;48.266;14.188;2022-10-16T04:11:55;13.60;90.10
68476;DHT22;55464;48.266;14.188;2022-10-16T04:14:21;13.60;90.10
68476;DHT22;55464;48.266;14.188;2022-10-16T04:16:46;13.60;90.10
68476;DHT22;55464;48.266;14.188;2022-10-16T04:19:12;13.60;90.10
68476;DHT22;55464;48.266;14.188;2022-10-16T04:21:38;13.60;89.90
68476;DHT22;55464;48.266;14.188;2022-10-16T04:24:04;13.50;90.00
68476;DHT22;55464;48.266;14.188;2022-10-16T04:26:30;13.50;90.10
68476;DHT22;55464;48.266;14.188;2022-10-16T04:28:55;13.50;90.10
68476;DHT22;55464;48.266;14.188;2022-10-16T04:31:21;13.50;90.10
68476;DHT22;55464;48.266;14.188;2022-10-16T04:33:47;13.50;89.90
68476;DHT22;55464;48.266;14.188;2022-10-16T04:36:13;13.50;89.90
68476;DHT22;55464;48.266;14.188;2022-10-16T04:38:39;13.50;89.90
68476;DHT22;55464;48.266;14.188;2022-10-16T04:41:06;13.50;89.90
68476;DHT22;55464;48.266;14.188;2022-10-16T04:43:32;13.50;89.90
68476;DHT22;55464;48.266;14.188;2022-10-16T04:45:58;13.40;89.80
68476;DHT22;55464;48.266;14.188;2022-10-16T04:48:24;13.40;90.10
68476;DHT22;55464;48.266;14.188;2022-10-16T04:50:50;13.40;90.10
68476;DHT22;55464;48.266;14.188;2022-10-16T04:53:16;13.40;90.20
68476;DHT22;55464;48.266;14.188;2022-10-16T04:55:42;13.40;90.20
68476;DHT22;55464;48.266;14.188;2022-10-16T04:58:07;13.50;90.10
68476;DHT22;55464;48.266;14.188;2022-10-16T05:00:34;13.50;90.10
68476;DHT22;55464;48.266;14.188;2022-10-16T05:02:59;13.50;89.90
68476;DHT22;55464;48.266;14.188;2022-10-16T05:05:27;13.50;90.00
68476;DHT22;55464;48.266;14.188;2022-10-16T05:07:53;13.50;90.00
68476;DHT22;55464;48.266;14.188;2022-10-16T05:10:19;13.50;89.90
68476;DHT22;55464;48.266;14.188;2022-10-16T05:12:45;13.50;89.90
68476;DHT22;55464;48.266;14.188;2022-10-16T05:15:11;13.50;89.90
68476;DHT22;55464;48.266;14.188;2022-10-16T05:17:37;13.50;89.90
68476;DHT22;55464;48.266;14.188;2022-10-16T05:20:04;13.40;89.90
68476;DHT22;55464;48.266;14.188;2022-10-16T05:22:29;13.40;89.80
68476;DHT22;55464;48.266;14.188;2022-10-16T05:24:55;13.40;89.90
68476;DHT22;55464;48.266;14.188;2022-10-16T05:27:21;13.40;89.90
68476;DHT22;55464;48.266;14.188;2022-10-16T05:29:47;13.40;89.90
68476;DHT22;55464;48.266;14.188;2022-10-16T05:32:17;13.40;90.00
68476;DHT22;55464;48.266;14.188;2022-10-16T05:34:43;13.40;89.90
68476;DHT22;55464;48.266;14.188;2022-10-16T05:37:09;13.40;90.00
68476;DHT22;55464;48.266;14.188;2022-10-16T05:39:37;13.40;90.10
68476;DHT22;55464;48.266;14.188;2022-10-16T05:42:03;13.40;90.20
68476;DHT22;55464;48.266;14.188;2022-10-16T05:44:29;13.40;90.10
68476;DHT22;55464;48.266;14.188;2022-10-16T05:46:54;13.40;90.20
68476;DHT22;55464;48.266;14.188;2022-10-16T05:49:20;13.40;90.30
68476;DHT22;55464;48.266;14.188;2022-10-16T05:51:46;13.40;90.50
68476;DHT22;55464;48.266;14.188;2022-10-16T05:54:11;13.40;90.60
68476;DHT22;55464;48.266;14.188;2022-10-16T05:56:37;13.40;90.50
68476;DHT22;55464;48.266;14.188;2022-10-16T05:59:03;13.40;90.60
68476;DHT22;55464;48.266;14.188;2022-10-16T06:01:29;13.40;90.60
68476;DHT22;55464;48.266;14.188;2022-10-16T06:03:56;13.40;90.60
68476;DHT22;55464;48.266;14.188;2022-10-16T06:06:24;13.40;90.60
68476;DHT22;55464;48.266;14.188;2022-10-16T06:08:52;13.40;90.60
68476;DHT22;55464;48.266;14.188;2022-10-16T06:11:26;13.40;90.60
68476;DHT22;55464;48.266;14.188;2022-10-16T06:13:54;13.40;90.60
68476;DHT22;55464;48.266;14.188;2022-10-16T06:16:22;13.40;90.60
68476;DHT22;55464;48.266;14.188;2022-10-16T06:18:51;13.40;90.70
68476;DHT22;55464;48.266;14.188;2022-10-16T06:21:19;13.40;90.70
68476;DHT22;55464;48.266;14.188;2022-10-16T06:23:46;13.40;90.60
68476;DHT22;55464;48.266;14.188;2022-10-16T06:26:14;13.40;90.60
68476;DHT22;55464;48.266;14.188;2022-10-16T06:28:40;13.40;90.50
68476;DHT22;55464;48.266;14.188;2022-10-16T06:31:07;13.50;90.50
68476;DHT22;55464;48.266;14.188;2022-10-16T06:33:33;13.40;90.50
68476;DHT22;55464;48.266;14.188;2022-10-16T06:36:12;13.50;90.30
68476;DHT22;55464;48.266;14.188;2022-10-16T06:38:38;13.50;90.20
68476;DHT22;55464;48.266;14.188;2022-10-16T06:41:05;13.40;90.30
68476;DHT22;55464;48.266;14.188;2022-10-16T06:43:32;13.50;90.60
68476;DHT22;55464;48.266;14.188;2022-10-16T06:45:59;13.50;90.60
68476;DHT22;55464;48.266;14.188;2022-10-16T06:48:26;13.50;90.60
68476;DHT22;55464;48.266;14.188;2022-10-16T06:53:21;13.50;90.40
68476;DHT22;55464;48.266;14.188;2022-10-16T06:55:47;13.50;90.40
68476;DHT22;55464;48.266;14.188;2022-10-16T06:58:12;13.50;90.40
68476;DHT22;55464;48.266;14.188;2022-10-16T07:00:38;13.50;90.40
68476;DHT22;55464;48.266;14.188;2022-10-16T07:03:03;13.50;90.50
68476;DHT22;55464;48.266;14.188;2022-10-16T07:05:29;13.50;90.60
68476;DHT22;55464;48.266;14.188;2022-10-16T07:07:55;13.50;90.70
68476;DHT22;55464;48.266;14.188;2022-10-16T07:10:20;13.50;90.80
68476;DHT22;55464;48.266;14.188;2022-10-16T07:12:49;13.50;90.80
68476;DHT22;55464;48.266;14.188;2022-10-16T07:15:15;13.50;90.60
68476;DHT22;55464;48.266;14.188;2022-10-16T07:17:40;13.50;90.70
68476;DHT22;55464;48.266;14.188;2022-10-16T07:20:06;13.50;90.80
68476;DHT22;55464;48.266;14.188;2022-10-16T07:22:32;13.50;91.00
68476;DHT22;55464;48.266;14.188;2022-10-16T07:24:58;13.60;91.00
68476;DHT22;55464;48.266;14.188;2022-10-16T07:27:24;13.50;91.10
68476;DHT22;55464;48.266;14.188;2022-10-16T07:29:51;13.60;91.20
68476;DHT22;55464;48.266;14.188;2022-10-16T07:32:17;13.60;91.30
68476;DHT22;55464;48.266;14.188;2022-10-16T07:34:43;13.60;91.30
68476;DHT22;55464;48.266;14.188;2022-10-16T07:37:08;13.60;91.40
68476;DHT22;55464;48.266;14.188;2022-10-16T07:39:34;13.60;91.40
68476;DHT22;55464;48.266;14.188;2022-10-16T07:41:59;13.70;91.60
68476;DHT22;55464;48.266;14.188;2022-10-16T07:44:25;13.70;91.70
68476;DHT22;55464;48.266;14.188;2022-10-16T07:46:50;13.80;91.70
68476;DHT22;55464;48.266;14.188;2022-10-16T07:49:16;13.80;91.60
68476;DHT22;55464;48.266;14.188;2022-10-16T07:51:42;13.80;91.40
68476;DHT22;55464;48.266;14.188;2022-10-16T07:54:09;13.80;91.30
68476;DHT22;55464;48.266;14.188;2022-10-16T07:56:34;13.80;91.30
68476;DHT22;55464;48.266;14.188;2022-10-16T07:59:00;13.80;91.40
68476;DHT22;55464;48.266;14.188;2022-10-16T08:01:26;13.80;91.50
68476;DHT22;55464;48.266;14.188;2022-10-16T08:03:52;13.90;91.70
68476;DHT22;55464;48.266;14.188;2022-10-16T08:06:19;13.90;91.80
68476;DHT22;55464;48.266;14.188;2022-10-16T08:08:45;14.00;91.80
68476;DHT22;55464;48.266;14.188;2022-10-16T08:11:11;14.00;91.90
68476;DHT22;55464;48.266;14.188;2022-10-16T08:13:37;14.00;91.80
68476;DHT22;55464;48.266;14.188;2022-10-16T08:16:03;14.00;91.80
68476;DHT22;55464;48.266;14.188;2022-10-16T08:18:37;14.10;91.80
68476;DHT22;55464;48.266;14.188;2022-10-16T08:21:03;14.10;91.70
68476;DHT22;55464;48.266;14.188;2022-10-16T08:23:30;14.10;91.70
68476;DHT22;55464;48.266;14.188;2022-10-16T08:26:01;14.10;91.70
68476;DHT22;55464;48.266;14.188;2022-10-16T08:28:27;14.10;91.90
68476;DHT22;55464;48.266;14.188;2022-10-16T08:30:52;14.20;92.00
68476;DHT22;55464;48.266;14.188;2022-10-16T08:33:18;14.20;92.00
68476;DHT22;55464;48.266;14.188;2022-10-16T08:35:53;14.30;91.90
68476;DHT22;55464;48.266;14.188;2022-10-16T08:38:20;14.30;91.90
68476;DHT22;55464;48.266;14.188;2022-10-16T08:40:46;14.30;91.80
68476;DHT22;55464;48.266;14.188;2022-10-16T08:46:18;14.30;91.80
68476;DHT22;55464;48.266;14.188;2022-10-16T08:48:51;14.30;91.80
68476;DHT22;55464;48.266;14.188;2022-10-16T08:51:26;14.40;91.80
68476;DHT22;55464;48.266;14.188;2022-10-16T08:53:55;14.40;91.90
68476;DHT22;55464;48.266;14.188;2022-10-16T08:56:22;14.40;91.70
68476;DHT22;55464;48.266;14.188;2022-10-16T08:58:49;14.40;91.80
68476;DHT22;55464;48.266;14.188;2022-10-16T09:01:17;14.50;91.80
68476;DHT22;55464;48.266;14.188;2022-10-16T09:12:28;14.50;92.00
68476;DHT22;55464;48.266;14.188;2022-10-16T09:18:34;14.60;92.10
68476;DHT22;55464;48.266;14.188;2022-10-16T09:21:30;14.60;92.00
68476;DHT22;55464;48.266;14.188;2022-10-16T09:24:20;14.70;91.90
68476;DHT22;55464;48.266;14.188;2022-10-16T09:26:47;14.70;91.80
68476;DHT22;55464;48.266;14.188;2022-10-16T09:29:18;14.80;91.80
68476;DHT22;55464;48.266;14.188;2022-10-16T09:31:47;14.80;91.70
68476;DHT22;55464;48.266;14.188;2022-10-16T09:34:52;14.80;91.80
68476;DHT22;55464;48.266;14.188;2022-10-16T09:37:20;14.90;91.70
68476;DHT22;55464;48.266;14.188;2022-10-16T09:39:51;14.90;91.50
68476;DHT22;55464;48.266;14.188;2022-10-16T09:42:22;14.90;91.60
68476;DHT22;55464;48.266;14.188;2022-10-16T09:44:52;15.00;91.80
68476;DHT22;55464;48.266;14.188;2022-10-16T09:47:22;15.00;91.60
68476;DHT22;55464;48.266;14.188;2022-10-16T09:50:00;15.00;91.60
68476;DHT22;55464;48.266;14.188;2022-10-16T09:52:28;15.00;92.30
68476;DHT22;55464;48.266;14.188;2022-10-16T09:54:59;15.10;91.70
68476;DHT22;55464;48.266;14.188;2022-10-16T09:57:26;15.10;91.70
68476;DHT22;55464;48.266;14.188;2022-10-16T09:59:54;15.10;91.70
68476;DHT22;55464;48.266;14.188;2022-10-16T10:02:31;15.20;91.80
68476;DHT22;55464;48.266;14.188;2022-10-16T10:04:59;15.20;91.60
68476;DHT22;55464;48.266;14.188;2022-10-16T10:07:27;15.30;91.60
68476;DHT22;55464;48.266;14.188;2022-10-16T10:09:54;15.30;91.70
68476;DHT22;55464;48.266;14.188;2022-10-16T10:12:25;15.40;91.90
68476;DHT22;55464;48.266;14.188;2022-10-16T10:14:55;15.40;91.70
68476;DHT22;55464;48.266;14.188;2022-10-16T10:17:23;15.40;91.70
68476;DHT22;55464;48.266;14.188;2022-10-16T10:19:55;15.50;91.70
68476;DHT22;55464;48.266;14.188;2022-10-16T10:24:57;15.50;91.60
68476;DHT22;55464;48.266;14.188;2022-10-16T10:27:30;15.50;91.70
68476;DHT22;55464;48.266;14.188;2022-10-16T10:30:03;15.50;91.60
68476;DHT22;55464;48.266;14.188;2022-10-16T10:32:39;15.50;91.70
68476;DHT22;55464;48.266;14.188;2022-10-16T10:40:28;15.70;92.20
68476;DHT22;55464;48.266;14.188;2022-10-16T10:45:27;15.90;92.10
68476;DHT22;55464;48.266;14.188;2022-10-16T11:00:44;16.20;91.20
68476;DHT22;55464;48.266;14.188;2022-10-16T11:05:56;16.30;91.20
68476;DHT22;55464;48.266;14.188;2022-10-16T11:08:28;16.40;91.00
68476;DHT22;55464;48.266;14.188;2022-10-16T11:10:58;16.50;91.00
68476;DHT22;55464;48.266;14.188;2022-10-16T11:15:51;16.50;90.60
68476;DHT22;55464;48.266;14.188;2022-10-16T11:21:06;16.70;90.20
68476;DHT22;55464;48.266;14.188;2022-10-16T11:23:51;16.90;89.80
68476;DHT22;55464;48.266;14.188;2022-10-16T11:26:23;17.00;89.70
68476;DHT22;55464;48.266;14.188;2022-10-16T11:28:50;17.10;88.70
68476;DHT22;55464;48.266;14.188;2022-10-16T11:31:21;17.10;89.00
68476;DHT22;55464;48.266;14.188;2022-10-16T11:36:36;17.20;88.40
68476;DHT22;55464;48.266;14.188;2022-10-16T11:46:47;17.40;88.10
68476;DHT22;55464;48.266;14.188;2022-10-16T11:49:21;17.50;87.60
68476;DHT22;55464;48.266;14.188;2022-10-16T11:51:50;17.50;88.00
68476;DHT22;55464;48.266;14.188;2022-10-16T11:54:28;17.60;87.70
68476;DHT22;55464;48.266;14.188;2022-10-16T11:56:56;17.70;87.40
68476;DHT22;55464;48.266;14.188;2022-10-16T12:01:51;17.70;86.80
68476;DHT22;55464;48.266;14.188;2022-10-16T12:04:36;17.80;86.30
68476;DHT22;55464;48.266;14.188;2022-10-16T12:07:14;17.80;85.90
68476;DHT22;55464;48.266;14.188;2022-10-16T12:09:40;17.90;85.60
68476;DHT22;55464;48.266;14.188;2022-10-16T12:17:45;18.10;84.50
68476;DHT22;55464;48.266;14.188;2022-10-16T12:22:36;18.30;83.50
68476;DHT22;55464;48.266;14.188;2022-10-16T12:25:02;18.30;83.70
68476;DHT22;55464;48.266;14.188;2022-10-16T12:27:29;18.40;82.80
68476;DHT22;55464;48.266;14.188;2022-10-16T12:29:59;18.50;83.00
68476;DHT22;55464;48.266;14.188;2022-10-16T12:34:50;18.50;83.00
68476;DHT22;55464;48.266;14.188;2022-10-16T12:37:20;18.60;82.70
68476;DHT22;55464;48.266;14.188;2022-10-16T12:39:46;18.60;82.10
68476;DHT22;55464;48.266;14.188;2022-10-16T12:44:54;18.80;81.40
68476;DHT22;55464;48.266;14.188;2022-10-16T12:49:54;18.90;80.70
68476;DHT22;55464;48.266;14.188;2022-10-16T12:52:31;19.00;79.90
68476;DHT22;55464;48.266;14.188;2022-10-16T12:55:00;19.10;79.10
68476;DHT22;55464;48.266;14.188;2022-10-16T13:00:13;19.40;78.20
68476;DHT22;55464;48.266;14.188;2022-10-16T13:05:21;19.60;76.00
68476;DHT22;55464;48.266;14.188;2022-10-16T13:12:53;19.90;76.10
68476;DHT22;55464;48.266;14.188;2022-10-16T13:18:14;20.00;74.30
68476;DHT22;55464;48.266;14.188;2022-10-16T13:23:24;20.00;75.20
68476;DHT22;55464;48.266;14.188;2022-10-16T13:28:27;20.10;73.00
68476;DHT22;55464;48.266;14.188;2022-10-16T13:30:55;20.10;74.10
68476;DHT22;55464;48.266;14.188;2022-10-16T13:33:35;20.20;72.80
68476;DHT22;55464;48.266;14.188;2022-10-16T13:36:01;20.30;72.50
68476;DHT22;55464;48.266;14.188;2022-10-16T13:38:28;20.30;71.70
68476;DHT22;55464;48.266;14.188;2022-10-16T13:40:55;20.40;71.20
68476;DHT22;55464;48.266;14.188;2022-10-16T13:43:26;20.50;70.60
68476;DHT22;55464;48.266;14.188;2022-10-16T13:45:56;20.70;68.80
68476;DHT22;55464;48.266;14.188;2022-10-16T13:48:22;20.90;68.10
68476;DHT22;55464;48.266;14.188;2022-10-16T13:50:58;21.10;68.00
68476;DHT22;55464;48.266;14.188;2022-10-16T13:53:23;21.40;67.00
68476;DHT22;55464;48.266;14.188;2022-10-16T13:55:49;21.50;66.00
68476;DHT22;55464;48.266;14.188;2022-10-16T13:58:14;21.80;65.20
68476;DHT22;55464;48.266;14.188;2022-10-16T14:00:41;22.00;64.40
68476;DHT22;55464;48.266;14.188;2022-10-16T14:03:17;22.00;64.60
68476;DHT22;55464;48.266;14.188;2022-10-16T14:05:45;22.10;64.20
68476;DHT22;55464;48.266;14.188;2022-10-16T14:08:12;22.30;63.40
68476;DHT22;55464;48.266;14.188;2022-10-16T14:10:38;22.20;63.20
68476;DHT22;55464;48.266;14.188;2022-10-16T14:13:07;22.10;63.40
68476;DHT22;55464;48.266;14.188;2022-10-16T14:15:34;22.20;63.00
68476;DHT22;55464;48.266;14.188;2022-10-16T14:18:00;22.50;62.60
68476;DHT22;55464;48.266;14.188;2022-10-16T14:20:27;22.60;62.00
68476;DHT22;55464;48.266;14.188;2022-10-16T14:23:00;22.40;62.70
68476;DHT22;55464;48.266;14.188;2022-10-16T14:25:28;22.10;63.40
68476;DHT22;55464;48.266;14.188;2022-10-16T14:28:04;21.60;64.50
68476;DHT22;55464;48.266;14.188;2022-10-16T14:30:30;21.30;66.20
68476;DHT22;55464;48.266;14.188;2022-10-16T14:32:57;20.90;67.60
68476;DHT22;55464;48.266;14.188;2022-10-16T14:35:24;20.60;68.50
68476;DHT22;55464;48.266;14.188;2022-10-16T14:37:53;20.50;69.60
68476;DHT22;55464;48.266;14.188;2022-10-16T14:40:18;20.30;70.20
68476;DHT22;55464;48.266;14.188;2022-10-16T14:42:44;20.20;71.10
68476;DHT22;55464;48.266;14.188;2022-10-16T14:45:10;20.00;71.50
68476;DHT22;55464;48.266;14.188;2022-10-16T14:47:37;20.00;71.70
68476;DHT22;55464;48.266;14.188;2022-10-16T14:50:13;19.90;71.90
68476;DHT22;55464;48.266;14.188;2022-10-16T14:52:38;19.80;72.40
68476;DHT22;55464;48.266;14.188;2022-10-16T14:55:04;19.80;73.20
68476;DHT22;55464;48.266;14.188;2022-10-16T14:57:31;19.60;73.40
68476;DHT22;55464;48.266;14.188;2022-10-16T14:59:58;19.60;73.50
68476;DHT22;55464;48.266;14.188;2022-10-16T15:02:30;19.60;73.60
68476;DHT22;55464;48.266;14.188;2022-10-16T15:04:56;19.50;74.10
68476;DHT22;55464;48.266;14.188;2022-10-16T15:07:22;19.50;74.40
68476;DHT22;55464;48.266;14.188;2022-10-16T15:09:48;19.50;75.00
68476;DHT22;55464;48.266;14.188;2022-10-16T15:12:13;19.40;75.20
68476;DHT22;55464;48.266;14.188;2022-10-16T15:14:39;19.40;75.60
68476;DHT22;55464;48.266;14.188;2022-10-16T15:17:05;19.40;75.50
68476;DHT22;55464;48.266;14.188;2022-10-16T15:19:31;19.30;75.50
68476;DHT22;55464;48.266;14.188;2022-10-16T15:21:56;19.30;75.80
68476;DHT22;55464;48.266;14.188;2022-10-16T15:24:22;19.20;76.00
68476;DHT22;55464;48.266;14.188;2022-10-16T15:26:47;19.10;76.20
68476;DHT22;55464;48.266;14.188;2022-10-16T15:29:14;19.10;76.40
68476;DHT22;55464;48.266;14.188;2022-10-16T15:31:39;19.10;76.40
68476;DHT22;55464;48.266;14.188;2022-10-16T15:34:08;19.00;76.70
68476;DHT22;55464;48.266;14.188;2022-10-16T15:36:35;19.00;76.80
68476;DHT22;55464;48.266;14.188;2022-10-16T15:39:20;19.00;76.90
68476;DHT22;55464;48.266;14.188;2022-10-16T15:41:46;19.00;76.90
68476;DHT22;55464;48.266;14.188;2022-10-16T15:44:16;19.00;77.10
68476;DHT22;55464;48.266;14.188;2022-10-16T15:46:42;19.00;77.30
68476;DHT22;55464;48.266;14.188;2022-10-16T15:49:07;19.00;77.40
68476;DHT22;55464;48.266;14.188;2022-10-16T15:51:33;18.90;77.60
68476;DHT22;55464;48.266;14.188;2022-10-16T15:53:59;18.90;77.60
68476;DHT22;55464;48.266;14.188;2022-10-16T15:56:27;18.80;77.80
68476;DHT22;55464;48.266;14.188;2022-10-16T15:58:53;18.80;78.00
68476;DHT22;55464;48.266;14.188;2022-10-16T16:01:19;18.80;78.20
68476;DHT22;55464;48.266;14.188;2022-10-16T16:03:45;18.70;78.60
68476;DHT22;55464;48.266;14.188;2022-10-16T16:06:12;18.60;78.70
68476;DHT22;55464;48.266;14.188;2022-10-16T16:08:38;18.60;79.00
68476;DHT22;55464;48.266;14.188;2022-10-16T16:11:05;18.60;79.10
68476;DHT22;55464;48.266;14.188;2022-10-16T16:13:31;18.50;79.30
68476;DHT22;55464;48.266;14.188;2022-10-16T16:15:56;18.50;79.40
68476;DHT22;55464;48.266;14.188;2022-10-16T16:18:22;18.50;79.60
68476;DHT22;55464;48.266;14.188;2022-10-16T16:20:49;18.50;79.60
68476;DHT22;55464;48.266;14.188;2022-10-16T16:23:15;18.50;79.60
68476;DHT22;55464;48.266;14.188;2022-10-16T16:25:40;18.40;79.70
68476;DHT22;55464;48.266;14.188;2022-10-16T16:28:06;18.40;79.50
68476;DHT22;55464;48.266;14.188;2022-10-16T16:30:32;18.30;79.40
68476;DHT22;55464;48.266;14.188;2022-10-16T16:32:58;18.30;79.40
68476;DHT22;55464;48.266;14.188;2022-10-16T16:35:23;18.30;79.30
68476;DHT22;55464;48.266;14.188;2022-10-16T16:37:49;18.30;79.10
68476;DHT22;55464;48.266;14.188;2022-10-16T16:40:14;18.30;79.00
68476;DHT22;55464;48.266;14.188;2022-10-16T16:42:40;18.30;79.10
68476;DHT22;55464;48.266;14.188;2022-10-16T16:45:06;18.30;79.00
68476;DHT22;55464;48.266;14.188;2022-10-16T16:47:31;18.20;78.90
68476;DHT22;55464;48.266;14.188;2022-10-16T16:49:57;18.20;78.70
68476;DHT22;55464;48.266;14.188;2022-10-16T16:52:22;18.20;78.80
68476;DHT22;55464;48.266;14.188;2022-10-16T16:54:48;18.10;78.80
68476;DHT22;55464;48.266;14.188;2022-10-16T16:57:20;18.10;78.70
68476;DHT22;55464;48.266;14.188;2022-10-16T16:59:46;18.10;78.60
68476;DHT22;55464;48.266;14.188;2022-10-16T17:02:11;18.10;78.60
68476;DHT22;55464;48.266;14.188;2022-10-16T17:04:37;18.10;78.60
68476;DHT22;55464;48.266;14.188;2022-10-16T17:07:02;18.10;78.60